Xiamen Gaoqi International Airport
ZSAM : now visible

Airfield :











YOU CAN JOIN US ON...

 
LOGIN :

Register | Disclaimer

   EN    FR    IT 

 









Legend :    VFR   Marginal VFR   IFR   Intensive IFR   Very Intensive IFR
Visi :
Ceiling :
>= 8 km
>= 3000ft
5 to 8 km
1000 to 3000 ft
1500m to 5 km
500 to 1000 ft
800 to 1500m
200 to 500 ft
< 800m
< 200 ft
Symbols :   Thunderstorms  Fog  Heavy snow  Heavy precipitations  Wind > 20 kt






- Airport Elevation : 59 ft
- IATA code : XMN


ZSAM - Xiamen Gaoqi International

CURRENT METAR :
  • 141100Z 23003MPS CAVOK 28/26 Q1003 NOSIG

EXPIRED METARs :
  • 141000Z 21003MPS 180V240 CAVOK 28/26 Q1002 NOSIG
  • 140900Z 21006G11MPS 9999 FEW023 28/25 Q1002 NOSIG
  • 140800Z 20005MPS 9999 FEW009 SCT040 FEW040CB 29/28 Q1002 RETSRA NOSIG
  • 140700Z 19005MPS 160V240 6000 SHRA FEW008 BKN020 FEW033CB 28/27 Q1003 BECMG TL0740 TSRA

TAF TAF ZSAM
Valid from the 14 at 12:00 until the 15 at 12:00 UTC


140902Z 1412/1512 20004G09MPS 6000 BKN023 TX33/1506Z TN26/1421Z
TEMPO 1506/1512 2000 TSRA BR SCT010 FEW020CB BKN023
ZSHA FIR / Asia



MET'MAP, your aeronautical weather chart ! - Copyright ORBIFLY December 2007 - Disclaimer

ORBIFLY MET'MAP TEAM :

Programming & Development : Alexandra Zaïnal
Original concept : Baudouin d'Aumeries
Technical & hardware support : Manuel Goepfert
Assistance : Marc-Olivier Méhu




SOURCES & CREDITS :

   NOAA       Earth
Advisory